Gorliz-Elexalde, Spain
Current Conditions -  °F | °C
As of 5:30 PM on Wednesday 26 Nov 2014 (Local Time) from LEBB Reporting Station
Broken Clouds Broken Clouds  
Wind Chill: 57°   Ceiling: 6500
Heat Index: 57°   Visibility: 6mi
Dew Point: 54°   Wind: 2mph
Humidity: 88%   Direction: NA
Pressure: 29.85"   Gusts: NA
Location:  43.41°N, 2.94°W
Report Text: LEBB 261630Z VRB02KT 9999 SCT020 BKN065 14/12 Q1011 NOSIG
Loading
Personal Weather Stations






























Interactive Weather Map New forecast layout! Learn more

10-Day Weather Forecast

Advertisements
Track Severe Weather on mobile